Time;durP1;ratioP1;P1;durP2;ratioP2;P2;SDS_P1;SDS_P2;PMS_P1;PMS_P2;Temp;Humidity;BMP_temperature;BMP_pressure;BME280_temperature;BME280_humidity;BME280_pressure;Samples;Min_cycle;Max_cycle;Signal;HPM_P1;HPM_P2
2021/04/15 00:01:55;;;;;;;12.00;9.00;;;-0.40;99.90;;;;;;5032461;28;21492;-71
2021/04/15 00:04:21;;;;;;;15.37;10.17;;;-0.40;99.90;;;;;;5031391;28;20187;-71
2021/04/15 00:06:47;;;;;;;13.10;9.00;;;-0.40;99.90;;;;;;5032689;28;20683;-71
2021/04/15 00:09:20;;;;;;;14.70;9.37;;;-0.40;99.90;;;;;;5032172;28;20424;-71
2021/04/15 00:11:46;;;;;;;15.73;9.30;;;-0.40;99.90;;;;;;5031074;28;20186;-72
2021/04/15 00:14:15;;;;;;;13.23;9.83;;;-0.40;99.90;;;;;;5032176;28;20885;-72
2021/04/15 00:16:41;;;;;;;13.90;9.87;;;-0.50;99.90;;;;;;5030990;28;20456;-71
2021/04/15 00:19:09;;;;;;;16.00;9.07;;;-0.50;99.90;;;;;;5031921;28;20451;-71
2021/04/15 00:21:35;;;;;;;14.20;9.70;;;-0.50;99.90;;;;;;5032615;28;20386;-71
2021/04/15 00:24:01;;;;;;;15.33;9.73;;;-0.60;99.90;;;;;;5031899;28;20431;-72
2021/04/15 00:26:28;;;;;;;13.90;10.37;;;-0.60;99.90;;;;;;5031476;28;20241;-72
2021/04/15 00:28:54;;;;;;;13.37;9.40;;;-0.70;99.90;;;;;;5031505;28;20412;-71
2021/04/15 00:31:21;;;;;;;14.63;9.70;;;-0.70;99.90;;;;;;5031904;28;20910;-71
2021/04/15 00:33:47;;;;;;;12.30;9.33;;;-0.70;99.90;;;;;;5032090;28;20975;-71
2021/04/15 00:36:13;;;;;;;10.30;9.03;;;-0.80;99.90;;;;;;5031605;28;20463;-71
2021/04/15 00:38:39;;;;;;;10.57;8.53;;;-0.80;99.90;;;;;;5031995;28;20192;-71
2021/04/15 00:41:07;;;;;;;15.20;9.97;;;-0.80;99.90;;;;;;5031810;28;20400;-71
2021/04/15 00:43:37;;;;;;;15.40;9.47;;;-0.80;99.90;;;;;;5031842;28;20499;-71
2021/04/15 00:46:30;;;;;;;12.93;9.53;;;-0.80;99.90;;;;;;5023832;28;20460;-71
2021/04/15 00:48:56;;;;;;;15.93;10.57;;;-0.80;99.90;;;;;;5031361;28;20766;-71
2021/04/15 00:51:35;;;;;;;13.93;9.53;;;-0.90;99.90;;;;;;5031478;28;20402;-71
2021/04/15 00:54:06;;;;;;;14.97;9.60;;;-0.90;99.90;;;;;;5031648;28;20666;-71
2021/04/15 00:56:32;;;;;;;15.00;10.13;;;-0.90;99.90;;;;;;5028233;28;20946;-71
2021/04/15 00:58:58;;;;;;;12.30;9.63;;;-0.90;99.90;;;;;;5032437;28;20422;-71
2021/04/15 01:01:24;;;;;;;13.80;9.40;;;-0.90;99.90;;;;;;5032708;28;20398;-71
2021/04/15 01:03:50;;;;;;;17.33;10.10;;;-1.00;99.90;;;;;;5032997;28;20444;-70
2021/04/15 01:06:16;;;;;;;11.17;8.90;;;-1.00;99.90;;;;;;5032664;28;21035;-70
2021/04/15 01:08:42;;;;;;;13.97;10.10;;;-1.00;99.90;;;;;;5031222;28;20177;-70
2021/04/15 01:11:29;;;;;;;15.57;10.20;;;-1.00;99.90;;;;;;5032175;28;20969;-71
2021/04/15 01:14:24;;;;;;;13.60;10.30;;;-1.10;99.90;;;;;;5031830;28;20176;-69
2021/04/15 01:17:05;;;;;;;13.97;10.40;;;-1.10;99.90;;;;;;5031601;28;20844;-69
2021/04/15 01:19:47;;;;;;;14.63;9.57;;;-1.10;99.90;;;;;;5027505;28;20429;-70
2021/04/15 01:22:40;;;;;;;16.80;10.27;;;-1.10;99.90;;;;;;5028945;28;20505;-70
2021/04/15 01:25:30;;;;;;;12.60;10.33;;;-1.10;99.90;;;;;;5026156;28;20470;-70
2021/04/15 01:28:17;;;;;;;16.50;10.17;;;-1.20;99.90;;;;;;5031132;28;20417;-70
2021/04/15 01:30:50;;;;;;;15.70;10.70;;;-1.20;99.90;;;;;;5028563;28;20422;-69
2021/04/15 01:33:27;;;;;;;14.60;10.70;;;-1.20;99.90;;;;;;5031350;28;20459;-70
2021/04/15 01:36:03;;;;;;;16.60;10.87;;;-1.20;99.90;;;;;;5031088;28;20864;-70
2021/04/15 01:38:57;;;;;;;19.93;11.03;;;-1.20;99.90;;;;;;5032428;28;20433;-70
2021/04/15 01:41:55;;;;;;;15.57;10.23;;;-1.30;99.90;;;;;;5031810;28;20427;-70
2021/04/15 01:44:30;;;;;;;15.93;10.60;;;-1.30;99.90;;;;;;5033466;28;20925;-70
2021/04/15 01:47:00;;;;;;;15.27;11.63;;;-1.30;99.90;;;;;;5034465;28;20453;-70
2021/04/15 01:49:27;;;;;;;15.27;10.80;;;-1.30;99.90;;;;;;5035141;28;20932;-70
2021/04/15 01:51:54;;;;;;;17.80;12.07;;;-1.30;99.90;;;;;;5034858;28;20452;-70
2021/04/15 01:54:19;;;;;;;19.77;12.47;;;-1.30;99.90;;;;;;5035515;28;20480;-70
2021/04/15 01:56:57;;;;;;;17.53;12.73;;;-1.30;99.90;;;;;;5034614;28;21049;-70
2021/04/15 01:59:51;;;;;;;13.47;10.00;;;-1.30;99.90;;;;;;5035007;28;20616;-70
2021/04/15 02:02:22;;;;;;;17.53;11.57;;;-1.30;99.90;;;;;;5024330;28;20442;-70
2021/04/15 02:05:01;;;;;;;20.17;12.43;;;-1.40;99.90;;;;;;5034637;28;20878;-70
2021/04/15 02:07:32;;;;;;;30.93;13.37;;;-1.40;99.90;;;;;;5034552;28;20441;-70
2021/04/15 02:09:59;;;;;;;18.70;12.50;;;-1.40;99.90;;;;;;5034183;28;20398;-70
2021/04/15 02:12:30;;;;;;;21.80;12.50;;;-1.40;99.90;;;;;;5033247;28;20496;-70
2021/04/15 02:15:02;;;;;;;17.73;11.47;;;-1.40;99.90;;;;;;5034183;28;20492;-70
2021/04/15 02:17:35;;;;;;;16.40;11.20;;;-1.40;99.90;;;;;;5034416;28;20474;-70
2021/04/15 02:20:05;;;;;;;17.37;12.60;;;-1.40;99.90;;;;;;5034301;28;20454;-69
2021/04/15 02:22:50;;;;;;;18.40;12.00;;;-1.40;99.90;;;;;;5034368;28;20438;-70
2021/04/15 02:25:24;;;;;;;17.20;10.20;;;-1.40;99.90;;;;;;5031837;28;20431;-70
2021/04/15 02:27:57;;;;;;;16.43;11.10;;;-1.40;99.90;;;;;;5034326;28;20404;-70
2021/04/15 02:30:42;;;;;;;16.80;10.90;;;-1.40;99.90;;;;;;5034205;28;20925;-69
2021/04/15 02:33:22;;;;;;;18.63;12.43;;;-1.40;99.90;;;;;;5030923;28;20773;-70
2021/04/15 02:35:59;;;;;;;16.67;11.13;;;-1.40;99.90;;;;;;5033898;28;20841;-70
2021/04/15 02:38:31;;;;;;;16.30;10.37;;;-1.50;99.90;;;;;;5034027;28;20431;-70
2021/04/15 02:41:00;;;;;;;17.43;11.70;;;-1.50;99.90;;;;;;5033695;28;20754;-70
2021/04/15 02:43:36;;;;;;;20.07;12.47;;;-1.50;99.90;;;;;;5033975;28;20444;-70
2021/04/15 02:46:08;;;;;;;14.80;11.30;;;-1.50;99.90;;;;;;5029466;28;20532;-69
2021/04/15 02:48:37;;;;;;;22.77;12.20;;;-1.60;99.90;;;;;;5022704;28;20427;-70
2021/04/15 02:51:11;;;;;;;21.33;11.50;;;-1.60;99.90;;;;;;5033064;28;20898;-70
2021/04/15 02:53:59;;;;;;;24.07;12.10;;;-1.60;99.90;;;;;;5030304;28;20402;-70
2021/04/15 02:56:46;;;;;;;16.17;11.57;;;-1.60;99.90;;;;;;5033441;28;20424;-70
2021/04/15 02:59:28;;;;;;;16.33;12.20;;;-1.60;99.90;;;;;;5031043;28;20900;-70
2021/04/15 03:02:00;;;;;;;17.13;11.47;;;-1.70;99.90;;;;;;5033597;28;20488;-70
2021/04/15 03:04:26;;;;;;;15.73;11.20;;;-1.70;99.90;;;;;;5033572;28;20403;-70
2021/04/15 03:07:13;;;;;;;14.90;10.00;;;-1.70;99.90;;;;;;5033422;28;20547;-70
2021/04/15 03:09:42;;;;;;;16.80;11.60;;;-1.70;99.90;;;;;;5026349;28;20547;-70
2021/04/15 03:12:25;;;;;;;17.67;11.20;;;-1.80;99.90;;;;;;5033161;28;20430;-70
2021/04/15 03:15:10;;;;;;;13.03;10.83;;;-1.80;99.90;;;;;;5033136;28;20408;-70
2021/04/15 03:17:41;;;;;;;14.93;10.17;;;-1.80;99.90;;;;;;5029672;28;20416;-70
2021/04/15 03:20:33;;;;;;;13.83;9.57;;;-1.80;99.90;;;;;;5029905;28;20433;-70
2021/04/15 03:23:10;;;;;;;22.30;10.50;;;-1.80;99.90;;;;;;4992230;28;20448;-70
2021/04/15 03:25:35;;;;;;;18.03;10.20;;;-1.80;99.90;;;;;;5032910;28;20837;-70
2021/04/15 03:28:13;;;;;;;14.37;8.67;;;-1.80;99.90;;;;;;5028858;28;20400;-70
2021/04/15 03:30:45;;;;;;;18.07;11.20;;;-1.80;99.90;;;;;;5030197;28;20174;-70
2021/04/15 03:33:23;;;;;;;13.07;9.57;;;-1.80;99.90;;;;;;5033051;28;20407;-71
2021/04/15 03:36:01;;;;;;;11.13;9.93;;;-1.80;99.90;;;;;;5032960;28;20514;-73
2021/04/15 03:38:31;;;;;;;12.47;9.90;;;-1.80;99.90;;;;;;5033114;28;20408;-72
2021/04/15 03:41:04;;;;;;;23.70;11.60;;;-1.90;99.90;;;;;;5032818;28;20403;-72
2021/04/15 03:43:33;;;;;;;12.40;9.00;;;-1.80;99.90;;;;;;5031828;28;20436;-72
2021/04/15 03:46:05;;;;;;;13.90;11.50;;;-1.80;99.90;;;;;;5033047;28;20461;-70
2021/04/15 03:48:53;;;;;;;15.47;10.77;;;-1.80;99.90;;;;;;5034029;28;20460;-70
2021/04/15 03:51:32;;;;;;;14.97;11.07;;;-1.90;99.90;;;;;;5032342;28;20431;-69
2021/04/15 03:54:03;;;;;;;11.47;8.83;;;-1.90;99.90;;;;;;5032474;28;20423;-70
2021/04/15 03:56:44;;;;;;;13.60;9.10;;;-1.90;99.90;;;;;;5031266;28;20441;-70
2021/04/15 03:59:35;;;;;;;11.20;8.87;;;-1.90;99.90;;;;;;5029365;28;20411;-70
2021/04/15 04:02:06;;;;;;;12.17;8.03;;;-1.90;99.90;;;;;;5024477;28;20406;-69
2021/04/15 04:04:57;;;;;;;13.07;9.47;;;-1.90;99.90;;;;;;5032753;28;20399;-69
2021/04/15 04:07:45;;;;;;;11.43;8.67;;;-2.00;99.90;;;;;;5020611;28;20477;-69
2021/04/15 04:10:46;;;;;;;12.00;8.60;;;-2.00;99.90;;;;;;5025656;28;20430;-69
2021/04/15 04:13:16;;;;;;;12.83;7.63;;;-2.00;99.90;;;;;;5025279;28;20415;-69
2021/04/15 04:15:50;;;;;;;14.23;7.60;;;-2.00;99.90;;;;;;5032032;28;20451;-69
2021/04/15 04:18:46;;;;;;;11.37;6.60;;;-2.10;99.90;;;;;;5032560;28;20438;-69
2021/04/15 04:21:28;;;;;;;11.87;8.10;;;-2.10;99.90;;;;;;5022369;28;20415;-68
2021/04/15 04:24:22;;;;;;;12.73;9.47;;;-2.10;99.90;;;;;;5032360;28;20840;-69
2021/04/15 04:27:04;;;;;;;13.17;8.27;;;-2.10;99.90;;;;;;5030146;28;20440;-69
2021/04/15 04:29:29;;;;;;;11.90;7.33;;;-2.10;99.90;;;;;;5031882;28;20432;-70
2021/04/15 04:31:59;;;;;;;9.90;8.37;;;-2.10;99.90;;;;;;5030785;28;20423;-69
2021/04/15 04:34:26;;;;;;;11.33;8.20;;;-2.10;99.90;;;;;;5031958;28;20192;-69
2021/04/15 04:36:53;;;;;;;13.77;8.50;;;-2.20;99.90;;;;;;5031663;28;20445;-69
2021/04/15 04:39:20;;;;;;;14.03;8.30;;;-2.20;99.90;;;;;;5027982;28;20405;-68
2021/04/15 04:42:04;;;;;;;22.10;11.30;;;-2.20;99.90;;;;;;5033722;28;20399;-70
2021/04/15 04:44:40;;;;;;;14.57;9.30;;;-2.10;99.90;;;;;;5032913;28;20463;-69
2021/04/15 04:47:34;;;;;;;16.13;9.80;;;-2.10;99.90;;;;;;5034706;28;20476;-69
2021/04/15 04:50:28;;;;;;;16.23;9.03;;;-2.00;99.90;;;;;;5033740;28;20414;-70
2021/04/15 04:53:06;;;;;;;12.03;7.87;;;-2.00;99.90;;;;;;4995652;28;20548;-70
2021/04/15 04:55:49;;;;;;;21.73;7.43;;;-1.90;99.90;;;;;;5024213;28;20409;-70
2021/04/15 04:58:18;;;;;;;14.40;7.93;;;-1.90;99.90;;;;;;5031583;28;20426;-70
2021/04/15 05:00:55;;;;;;;10.53;7.40;;;-1.90;99.90;;;;;;5031547;28;20395;-69
2021/04/15 05:03:24;;;;;;;9.77;6.80;;;-1.80;99.90;;;;;;5031730;28;20396;-71
2021/04/15 05:05:58;;;;;;;8.37;7.13;;;-1.70;99.90;;;;;;5029805;28;20455;-72
2021/04/15 05:08:27;;;;;;;11.97;6.60;;;-1.70;99.90;;;;;;5031227;28;20433;-71
2021/04/15 05:10:55;;;;;;;13.00;8.13;;;-1.60;99.90;;;;;;5031385;28;20429;-72
2021/04/15 05:13:24;;;;;;;11.60;6.97;;;-1.50;99.90;;;;;;5030746;28;20453;-71
2021/04/15 05:15:49;;;;;;;10.00;6.90;;;-1.40;99.90;;;;;;5031066;28;20943;-71
2021/04/15 05:18:18;;;;;;;11.83;7.50;;;-1.40;99.90;;;;;;5030873;28;20421;-71
2021/04/15 05:20:44;;;;;;;12.50;7.50;;;-1.20;99.90;;;;;;5030970;28;20184;-71
2021/04/15 05:23:20;;;;;;;12.40;6.70;;;-1.00;99.90;;;;;;5030868;28;20462;-71
2021/04/15 05:26:14;;;;;;;9.07;5.90;;;-0.60;99.90;;;;;;5031165;28;20789;-72
2021/04/15 05:28:42;;;;;;;6.23;5.60;;;0.00;99.90;;;;;;5026873;28;20428;-71
2021/04/15 05:31:12;;;;;;;5.47;4.97;;;1.50;99.90;;;;;;5030759;28;20532;-71
2021/04/15 05:33:38;;;;;;;6.20;5.30;;;3.40;99.90;;;;;;5028860;28;20427;-71
2021/04/15 05:36:04;;;;;;;7.10;5.50;;;5.00;99.90;;;;;;5030491;28;20589;-71
2021/04/15 05:38:46;;;;;;;5.33;4.83;;;6.20;99.90;;;;;;5031139;28;21000;-71
2021/04/15 05:41:45;;;;;;;6.10;5.40;;;7.20;99.90;;;;;;5030836;28;20556;-71
2021/04/15 05:44:46;;;;;;;9.80;5.47;;;7.80;99.90;;;;;;5031207;28;20531;-71
2021/04/15 05:47:25;;;;;;;6.13;5.30;;;8.30;99.90;;;;;;5031641;28;20456;-72
2021/04/15 05:50:17;;;;;;;5.73;4.60;;;9.40;99.90;;;;;;5031436;28;20417;-72
2021/04/15 05:53:10;;;;;;;9.10;5.50;;;9.70;99.90;;;;;;5034113;28;20496;-72
2021/04/15 05:55:43;;;;;;;6.47;4.80;;;9.70;99.90;;;;;;5031504;28;20461;-72
2021/04/15 05:58:17;;;;;;;9.53;6.60;;;10.40;99.90;;;;;;5031792;28;20408;-73
2021/04/15 06:00:48;;;;;;;8.70;4.90;;;10.50;99.90;;;;;;5030569;28;20413;-73
2021/04/15 06:03:47;;;;;;;9.83;5.37;;;11.00;99.90;;;;;;5031648;28;20834;-73
2021/04/15 06:06:17;;;;;;;6.57;5.30;;;11.00;99.90;;;;;;5031199;28;20551;-73
2021/04/15 06:08:47;;;;;;;6.97;4.33;;;11.10;99.90;;;;;;5030211;28;20423;-73
2021/04/15 06:11:40;;;;;;;5.10;4.50;;;11.30;99.90;;;;;;5031218;28;20467;-73
2021/04/15 06:14:39;;;;;;;9.27;5.27;;;11.40;99.90;;;;;;5031397;28;20439;-73
2021/04/15 06:17:31;;;;;;;7.77;4.80;;;11.90;99.90;;;;;;5027428;28;20479;-73
2021/04/15 06:20:24;;;;;;;7.03;5.00;;;12.90;99.90;;;;;;5030138;28;20423;-73
2021/04/15 06:22:55;;;;;;;7.20;4.67;;;13.10;99.90;;;;;;5031442;28;20397;-73
2021/04/15 06:25:27;;;;;;;4.53;4.10;;;13.10;99.90;;;;;;5032060;28;20456;-73
2021/04/15 06:27:54;;;;;;;6.70;4.30;;;13.20;99.90;;;;;;5035041;28;20448;-73
2021/04/15 06:30:25;;;;;;;4.83;4.33;;;13.10;99.90;;;;;;5034712;28;20463;-73
2021/04/15 06:33:07;;;;;;;6.60;5.40;;;13.10;99.90;;;;;;5033329;28;20424;-73
2021/04/15 06:35:34;;;;;;;7.47;5.70;;;12.70;99.90;;;;;;5034820;28;20993;-73
2021/04/15 06:38:12;;;;;;;6.30;5.70;;;11.80;99.90;;;;;;5034646;28;20404;-73
2021/04/15 06:40:57;;;;;;;6.20;5.70;;;11.10;99.90;;;;;;5035104;28;20570;-73
2021/04/15 06:43:34;;;;;;;10.20;5.20;;;10.80;99.90;;;;;;5034723;28;20408;-73
2021/04/15 06:46:26;;;;;;;8.00;5.77;;;10.40;99.90;;;;;;5033748;28;20508;-73
2021/04/15 06:49:31;;;;;;;5.73;4.77;;;10.10;99.90;;;;;;5034659;28;20412;-73
2021/04/15 06:52:26;;;;;;;8.27;5.27;;;9.80;99.90;;;;;;5034325;28;20918;-73
2021/04/15 06:55:34;;;;;;;6.20;4.10;;;9.70;99.90;;;;;;5014417;28;20403;-73
2021/04/15 06:58:32;;;;;;;6.87;4.37;;;9.30;99.90;;;;;;5017022;28;20819;-73
2021/04/15 07:01:33;;;;;;;7.47;5.03;;;9.40;99.90;;;;;;5033808;28;20461;-73
2021/04/15 07:04:19;;;;;;;5.67;5.17;;;9.60;99.90;;;;;;4954380;28;20427;-73
2021/04/15 07:07:14;;;;;;;9.00;5.10;;;9.60;99.90;;;;;;5026729;28;20997;-73
2021/04/15 07:09:46;;;;;;;7.50;5.20;;;9.70;99.90;;;;;;5034838;28;20506;-73
2021/04/15 07:12:36;;;;;;;5.20;4.20;;;9.50;99.90;;;;;;5033639;28;20509;-73
2021/04/15 07:15:39;;;;;;;6.83;5.10;;;9.60;99.90;;;;;;5029498;28;20774;-73
2021/04/15 07:18:37;;;;;;;6.67;4.50;;;9.80;99.90;;;;;;5028942;28;20482;-73
2021/04/15 07:21:17;;;;;;;10.17;5.17;;;10.20;99.90;;;;;;5020091;28;20852;-73
2021/04/15 07:23:52;;;;;;;7.30;4.60;;;10.00;99.90;;;;;;5024125;28;20962;-73
2021/04/15 07:27:06;;;;;;;6.27;5.67;;;9.70;99.90;;;;;;5031466;28;20478;-73
2021/04/15 07:30:06;;;;;;;6.53;4.60;;;10.20;99.90;;;;;;4952289;29;20462;-73
2021/04/15 07:32:48;;;;;;;5.70;4.17;;;10.30;99.90;;;;;;4950173;29;20494;-73
2021/04/15 07:35:13;;;;;;;5.83;5.20;;;10.70;99.90;;;;;;5020728;28;20830;-74
2021/04/15 07:37:57;;;;;;;7.90;5.43;;;11.20;99.90;;;;;;5033737;28;20432;-74
2021/04/15 07:40:47;;;;;;;6.93;4.60;;;11.30;99.90;;;;;;5034402;28;20178;-74
2021/04/15 07:43:31;;;;;;;9.03;5.63;;;11.20;99.90;;;;;;5032330;28;20528;-74
2021/04/15 07:46:29;;;;;;;8.30;5.47;;;11.10;99.90;;;;;;5033238;28;20458;-74
2021/04/15 07:48:57;;;;;;;8.03;5.27;;;11.20;99.90;;;;;;5033416;28;20795;-74
2021/04/15 07:51:42;;;;;;;5.50;4.80;;;11.40;99.90;;;;;;5032815;28;20426;-74
2021/04/15 07:54:35;;;;;;;8.03;5.17;;;11.50;99.90;;;;;;5033745;28;20422;-74
2021/04/15 07:57:16;;;;;;;6.63;5.43;;;11.30;99.90;;;;;;5031077;28;20455;-74
2021/04/15 08:00:12;;;;;;;8.70;5.00;;;11.20;99.90;;;;;;5033069;28;20941;-74
2021/04/15 08:02:52;;;;;;;9.57;4.93;;;11.20;99.90;;;;;;5032873;28;20439;-74
2021/04/15 08:05:46;;;;;;;5.07;4.30;;;11.20;99.90;;;;;;5032630;28;20447;-74
2021/04/15 08:08:18;;;;;;;9.10;5.43;;;11.60;99.90;;;;;;5033000;28;20415;-74
2021/04/15 08:11:05;;;;;;;5.37;4.87;;;11.80;99.90;;;;;;5031247;28;20526;-74
2021/04/15 08:13:49;;;;;;;5.00;4.23;;;12.00;99.90;;;;;;5031780;28;20494;-74
2021/04/15 08:16:52;;;;;;;5.40;5.00;;;12.40;99.90;;;;;;5032542;28;20451;-74
2021/04/15 08:19:30;;;;;;;5.93;4.93;;;12.20;99.90;;;;;;5033021;28;20421;-74
2021/04/15 08:22:20;;;;;;;4.27;3.90;;;12.10;99.90;;;;;;5032639;28;20917;-74
2021/04/15 08:24:53;;;;;;;11.23;4.17;;;12.00;99.90;;;;;;5032817;28;20406;-74
2021/04/15 08:27:58;;;;;;;6.20;4.67;;;12.20;99.90;;;;;;5032893;28;20443;-74
2021/04/15 08:30:47;;;;;;;5.17;4.50;;;12.80;99.90;;;;;;5033333;28;20889;-74
2021/04/15 08:33:24;;;;;;;5.33;4.83;;;12.90;99.90;;;;;;5033300;28;20416;-74
2021/04/15 08:35:56;;;;;;;6.67;4.90;;;12.90;99.90;;;;;;5032312;28;20442;-74
2021/04/15 08:38:40;;;;;;;5.47;4.87;;;13.20;99.90;;;;;;5033180;28;20762;-74
2021/04/15 08:41:37;;;;;;;11.67;6.23;;;13.20;99.90;;;;;;5033027;28;20823;-74
2021/04/15 08:44:09;;;;;;;12.10;4.97;;;13.70;99.90;;;;;;5032845;28;20392;-75
2021/04/15 08:46:41;;;;;;;7.77;5.00;;;13.50;99.90;;;;;;5032842;28;20452;-74
2021/04/15 08:49:10;;;;;;;5.20;4.70;;;13.80;99.90;;;;;;5031308;28;20429;-75
2021/04/15 08:51:47;;;;;;;8.30;5.07;;;13.60;99.90;;;;;;5031940;28;20483;-75
2021/04/15 08:54:40;;;;;;;10.20;4.90;;;13.60;99.90;;;;;;5032005;28;20409;-75
2021/04/15 08:57:31;;;;;;;15.10;5.77;;;13.70;99.10;;;;;;5032005;28;20543;-75
2021/04/15 09:00:23;;;;;;;5.10;4.63;;;13.70;99.90;;;;;;4994313;28;20420;-75
2021/04/15 09:03:09;;;;;;;5.17;4.77;;;13.60;99.90;;;;;;5031592;28;20430;-75
2021/04/15 09:06:07;;;;;;;3.87;3.57;;;14.40;99.90;;;;;;5028019;28;20436;-75
2021/04/15 09:09:06;;;;;;;7.03;5.10;;;14.30;99.90;;;;;;5029595;28;20445;-75
2021/04/15 09:11:38;;;;;;;5.17;4.33;;;14.70;98.60;;;;;;5031666;28;20416;-74
2021/04/15 09:14:45;;;;;;;6.87;5.10;;;14.90;98.00;;;;;;5031824;28;21025;-75
2021/04/15 09:17:17;;;;;;;4.93;4.47;;;15.00;99.00;;;;;;4986180;28;20670;-75
2021/04/15 09:20:15;;;;;;;6.30;4.47;;;14.60;96.50;;;;;;5031595;28;20996;-75
2021/04/15 09:23:03;;;;;;;4.90;4.40;;;14.70;97.40;;;;;;5031406;28;20450;-75
2021/04/15 09:25:44;;;;;;;5.20;4.70;;;14.60;96.40;;;;;;5028032;28;20438;-75
2021/04/15 09:28:13;;;;;;;5.23;4.73;;;14.50;96.20;;;;;;5031611;28;20635;-75
2021/04/15 09:30:47;;;;;;;4.57;4.20;;;14.30;97.30;;;;;;5031797;28;20413;-75
2021/04/15 09:33:21;;;;;;;7.27;4.47;;;14.60;96.90;;;;;;5030733;28;20408;-74
2021/04/15 09:36:25;;;;;;;4.77;4.37;;;15.10;97.60;;;;;;5032811;28;20778;-74
2021/04/15 09:39:11;;;;;;;3.90;3.40;;;14.90;96.60;;;;;;5032436;28;20466;-73
2021/04/15 09:42:15;;;;;;;5.70;3.13;;;15.50;97.20;;;;;;5031782;28;20393;-73
2021/04/15 09:45:18;;;;;;;4.43;4.13;;;15.70;94.60;;;;;;4987429;28;20424;-74
2021/04/15 09:47:55;;;;;;;11.20;4.47;;;15.90;96.30;;;;;;5030178;28;20499;-74
2021/04/15 09:50:31;;;;;;;5.47;3.70;;;15.10;94.40;;;;;;5031548;28;20413;-74
2021/04/15 09:53:27;;;;;;;4.87;4.20;;;14.80;94.70;;;;;;5031463;28;20499;-74
2021/04/15 09:56:20;;;;;;;5.20;3.40;;;14.10;95.20;;;;;;5031754;28;20432;-73
2021/04/15 09:59:01;;;;;;;3.70;3.40;;;13.70;95.50;;;;;;5031903;28;20415;-76
2021/04/15 10:01:41;;;;;;;4.37;3.97;;;14.70;97.00;;;;;;5034797;28;20417;-73
2021/04/15 10:04:22;;;;;;;5.40;3.60;;;14.80;94.90;;;;;;5034787;28;20412;-73
2021/04/15 10:06:54;;;;;;;3.90;3.57;;;15.20;95.10;;;;;;5034342;28;20556;-73
2021/04/15 10:09:35;;;;;;;6.40;3.20;;;15.80;93.40;;;;;;5034569;28;20433;-73
2021/04/15 10:12:42;;;;;;;4.47;2.50;;;15.80;91.50;;;;;;5029688;28;20926;-73
2021/04/15 10:15:47;;;;;;;2.17;2.07;;;15.40;91.50;;;;;;5031608;28;20478;-73
2021/04/15 10:18:29;;;;;;;3.47;2.70;;;13.90;92.30;;;;;;5031871;28;20440;-73
2021/04/15 10:21:15;;;;;;;4.87;3.10;;;12.70;95.20;;;;;;5034537;28;20903;-73
2021/04/15 10:23:50;;;;;;;6.43;2.97;;;12.00;96.40;;;;;;5033395;28;20597;-72
2021/04/15 10:26:31;;;;;;;3.43;3.03;;;11.40;97.90;;;;;;5034067;28;20499;-74
2021/04/15 10:29:13;;;;;;;5.13;3.50;;;10.40;98.50;;;;;;5034462;28;20423;-73
2021/04/15 10:32:23;;;;;;;3.27;2.93;;;9.90;99.90;;;;;;5031838;28;20415;-73
2021/04/15 10:35:13;;;;;;;4.50;3.33;;;9.40;99.90;;;;;;4952700;29;20437;-72
2021/04/15 10:37:51;;;;;;;3.43;3.13;;;9.30;99.90;;;;;;4954115;29;20873;-73
2021/04/15 10:40:42;;;;;;;3.30;2.97;;;9.90;99.90;;;;;;5014487;28;20430;-73
2021/04/15 10:43:16;;;;;;;4.00;2.73;;;11.30;99.90;;;;;;5031268;28;20425;-73
2021/04/15 10:46:08;;;;;;;3.87;2.73;;;12.60;99.30;;;;;;5034053;28;20440;-73
2021/04/15 10:48:43;;;;;;;4.00;3.47;;;13.40;99.20;;;;;;5026722;28;20425;-73
2021/04/15 10:51:24;;;;;;;5.53;3.33;;;14.40;98.00;;;;;;5034003;28;20416;-73
2021/04/15 10:53:54;;;;;;;3.20;3.00;;;15.10;97.50;;;;;;5034049;28;20828;-73
2021/04/15 10:56:25;;;;;;;5.77;3.43;;;15.40;94.30;;;;;;5033732;28;20440;-73
2021/04/15 10:59:12;;;;;;;4.97;2.50;;;15.60;94.90;;;;;;5034274;28;20428;-73
2021/04/15 11:01:42;;;;;;;2.30;1.90;;;14.70;89.50;;;;;;5030593;28;20445;-72
2021/04/15 11:04:10;;;;;;;3.43;2.47;;;13.40;88.40;;;;;;5033826;28;20469;-73
2021/04/15 11:06:48;;;;;;;2.70;2.50;;;12.70;90.00;;;;;;5033484;28;20515;-73
2021/04/15 11:09:27;;;;;;;2.40;2.17;;;11.90;91.40;;;;;;5033757;28;20425;-73
2021/04/15 11:12:00;;;;;;;5.13;2.93;;;11.70;92.10;;;;;;5033196;28;20974;-73
2021/04/15 11:14:29;;;;;;;2.00;1.90;;;12.00;92.70;;;;;;5033573;28;20452;-73
2021/04/15 11:16:56;;;;;;;4.10;2.27;;;12.50;92.50;;;;;;5032206;28;21061;-73
2021/04/15 11:19:25;;;;;;;2.80;2.10;;;12.00;89.60;;;;;;5033926;28;20471;-73
2021/04/15 11:21:52;;;;;;;3.80;2.60;;;11.80;91.00;;;;;;5033242;28;20427;-73
2021/04/15 11:24:29;;;;;;;2.53;2.30;;;11.40;90.60;;;;;;5033764;28;20450;-73
2021/04/15 11:26:58;;;;;;;2.57;2.40;;;11.20;90.80;;;;;;5032942;28;20470;-73
2021/04/15 11:29:36;;;;;;;2.97;2.10;;;11.20;90.90;;;;;;5033437;28;20489;-76
2021/04/15 11:32:25;;;;;;;5.73;2.70;;;11.20;91.70;;;;;;5034736;28;20413;-74
2021/04/15 11:35:14;;;;;;;4.20;2.73;;;11.70;93.60;;;;;;5034284;28;20419;-73
2021/04/15 11:37:43;;;;;;;5.50;2.27;;;12.00;94.20;;;;;;5032699;28;20419;-73
2021/04/15 11:40:29;;;;;;;3.40;3.10;;;12.70;95.70;;;;;;5031661;28;20446;-73
2021/04/15 11:42:55;;;;;;;3.50;3.20;;;13.50;96.30;;;;;;5032781;28;20413;-73
2021/04/15 11:45:35;;;;;;;3.10;2.80;;;13.60;94.30;;;;;;5033008;28;20498;-73
2021/04/15 11:48:27;;;;;;;3.83;3.00;;;13.70;93.90;;;;;;5029104;28;20202;-73
2021/04/15 11:51:15;;;;;;;7.77;4.30;;;13.20;93.80;;;;;;5032722;28;20507;-73
2021/04/15 11:53:54;;;;;;;3.70;3.40;;;12.70;95.30;;;;;;5033055;28;20413;-73
2021/04/15 11:56:23;;;;;;;3.90;3.50;;;12.50;94.20;;;;;;5032389;28;20809;-73
2021/04/15 11:58:50;;;;;;;3.30;3.00;;;12.10;94.00;;;;;;5032750;28;20498;-73
2021/04/15 12:01:31;;;;;;;5.60;3.20;;;11.80;95.20;;;;;;5032393;28;20925;-73
2021/04/15 12:03:59;;;;;;;3.20;2.87;;;11.70;95.40;;;;;;5032735;28;20779;-73
2021/04/15 12:06:30;;;;;;;4.40;3.20;;;11.60;95.20;;;;;;5032236;28;20823;-73
2021/04/15 12:08:56;;;;;;;2.40;2.30;;;11.30;94.50;;;;;;5032499;28;20420;-73
2021/04/15 12:11:32;;;;;;;3.03;2.30;;;11.00;92.10;;;;;;5032396;28;20915;-73
2021/04/15 12:14:16;;;;;;;6.33;2.60;;;10.80;93.20;;;;;;5020365;28;20415;-73
2021/04/15 12:17:06;;;;;;;2.20;2.00;;;10.60;90.60;;;;;;5029920;28;20545;-73
2021/04/15 12:19:49;;;;;;;2.10;2.00;;;10.30;91.00;;;;;;5033238;28;20933;-74
2021/04/15 12:22:51;;;;;;;2.40;2.20;;;10.00;91.80;;;;;;5013101;28;20409;-74
2021/04/15 12:25:22;;;;;;;2.47;2.27;;;9.80;91.20;;;;;;5013130;28;20784;-73
2021/04/15 12:27:51;;;;;;;3.43;2.47;;;9.70;92.50;;;;;;5023784;28;20465;-74
2021/04/15 12:30:21;;;;;;;3.00;2.70;;;9.90;92.60;;;;;;5032012;28;20419;-74
2021/04/15 12:33:03;;;;;;;2.77;1.90;;;10.20;92.30;;;;;;5033037;28;20413;-74
2021/04/15 12:35:57;;;;;;;4.63;2.27;;;10.40;91.30;;;;;;5032815;28;20918;-73
2021/04/15 12:38:44;;;;;;;2.60;2.40;;;10.40;91.40;;;;;;5024361;28;20432;-74
2021/04/15 12:41:12;;;;;;;3.30;3.00;;;10.60;92.00;;;;;;5030595;28;20945;-74
2021/04/15 12:43:50;;;;;;;3.90;2.50;;;10.70;92.70;;;;;;5032246;28;20423;-74
2021/04/15 12:46:21;;;;;;;5.20;3.47;;;10.80;92.00;;;;;;5030378;28;20467;-74
2021/04/15 12:48:59;;;;;;;2.90;2.70;;;10.70;91.20;;;;;;5031003;28;20423;-74
2021/04/15 12:51:28;;;;;;;4.20;2.60;;;10.90;93.30;;;;;;5031794;28;20503;-73
2021/04/15 12:53:57;;;;;;;5.70;3.10;;;11.30;93.80;;;;;;5033078;28;20499;-74
2021/04/15 12:56:29;;;;;;;3.40;3.20;;;11.70;95.10;;;;;;5031813;28;20429;-73
2021/04/15 12:58:55;;;;;;;3.03;2.73;;;11.90;92.70;;;;;;5030945;28;20408;-74
2021/04/15 13:01:21;;;;;;;3.10;2.90;;;12.20;92.70;;;;;;5031667;28;20922;-74
2021/04/15 13:03:47;;;;;;;2.50;2.40;;;12.30;94.30;;;;;;5030716;28;20470;-74
2021/04/15 13:06:19;;;;;;;3.30;3.00;;;12.40;93.40;;;;;;5030446;28;20580;-73
2021/04/15 13:08:45;;;;;;;2.87;2.67;;;12.10;92.80;;;;;;5030352;28;20436;-74
2021/04/15 13:11:17;;;;;;;3.87;3.50;;;11.60;93.20;;;;;;5031613;28;20522;-74
2021/04/15 13:13:45;;;;;;;4.20;3.37;;;10.50;96.60;;;;;;5031739;28;20407;-73
2021/04/15 13:16:40;;;;;;;6.33;3.70;;;9.60;99.40;;;;;;5045790;22;20839;-76
2021/04/15 13:19:21;;;;;;;3.93;3.47;;;8.90;99.90;;;;;;5072250;28;20463;-76
2021/04/15 13:22:18;;;;;;;6.03;3.33;;;8.60;99.90;;;;;;5077236;28;20426;-75
2021/04/15 13:24:47;;;;;;;3.90;3.60;;;8.20;99.90;;;;;;5066591;28;20433;-76
2021/04/15 13:27:38;;;;;;;3.20;2.90;;;8.00;99.90;;;;;;5081782;28;20514;-75
2021/04/15 13:30:29;;;;;;;3.30;3.00;;;7.80;99.90;;;;;;5075780;28;20419;-75
2021/04/15 13:33:07;;;;;;;3.33;3.13;;;7.70;99.90;;;;;;5086978;28;20411;-73
2021/04/15 13:35:38;;;;;;;3.93;3.20;;;7.70;99.90;;;;;;5095057;28;20419;-73
2021/04/15 13:38:32;;;;;;;2.40;2.20;;;7.70;99.90;;;;;;5091340;28;20426;-74
2021/04/15 13:41:27;;;;;;;2.70;2.50;;;7.70;99.90;;;;;;5077974;28;20466;-73
2021/04/15 13:43:59;;;;;;;2.50;2.37;;;7.90;99.90;;;;;;5092961;28;20447;-73
2021/04/15 13:46:25;;;;;;;2.83;2.63;;;8.10;99.90;;;;;;5065435;28;20910;-73